createdAt,value
2016-10-24T00:00:36.076Z,25.61
2016-10-24T00:01:16.800Z,25.61
2016-10-24T00:01:57.485Z,25.6
2016-10-24T00:02:38.188Z,25.65
2016-10-24T00:03:18.891Z,25.61
2016-10-24T00:03:59.605Z,25.67
2016-10-24T00:04:40.347Z,25.6
2016-10-24T00:05:21.015Z,25.61
2016-10-24T00:06:01.718Z,25.62
2016-10-24T00:06:42.368Z,25.65
2016-10-24T00:07:23.069Z,25.64
2016-10-24T00:08:03.718Z,25.57
2016-10-24T00:08:44.429Z,25.62
2016-10-24T00:09:25.165Z,25.57
2016-10-24T00:10:05.836Z,25.57
2016-10-24T00:10:46.541Z,25.61
2016-10-24T00:11:27.274Z,25.61
2016-10-24T00:12:07.949Z,25.57
2016-10-24T00:12:48.629Z,25.64
2016-10-24T00:13:29.321Z,25.64
2016-10-24T00:14:10.031Z,25.67
2016-10-24T00:14:50.732Z,25.61
2016-10-24T00:15:31.417Z,25.57
2016-10-24T00:16:12.130Z,25.61
2016-10-24T00:16:52.793Z,25.62
2016-10-24T00:17:33.464Z,25.64
2016-10-24T00:18:14.159Z,25.61
2016-10-24T00:18:54.856Z,25.58
2016-10-24T00:19:35.550Z,25.6
2016-10-24T00:20:16.219Z,25.61
2016-10-24T00:20:56.938Z,25.6
2016-10-24T00:21:37.574Z,25.64
2016-10-24T00:22:18.236Z,25.57
2016-10-24T00:22:58.959Z,25.65
2016-10-24T00:23:39.607Z,25.64
2016-10-24T00:24:20.319Z,25.61
2016-10-24T00:25:01.047Z,25.6
2016-10-24T00:25:41.759Z,25.61
2016-10-24T00:26:22.418Z,25.6
2016-10-24T00:27:03.107Z,25.62
2016-10-24T00:27:43.811Z,25.64
2016-10-24T00:28:24.488Z,25.61
2016-10-24T00:29:05.134Z,25.57
2016-10-24T00:29:45.821Z,25.65
2016-10-24T00:30:26.491Z,25.58
2016-10-24T00:31:07.178Z,25.61
2016-10-24T00:31:47.868Z,25.64
2016-10-24T00:32:28.521Z,25.69
2016-10-24T00:33:09.224Z,25.6
2016-10-24T00:33:49.865Z,25.61
2016-10-24T00:34:30.602Z,25.69
2016-10-24T00:35:11.253Z,25.57
2016-10-24T00:35:52.784Z,25.61
2016-10-24T00:36:32.649Z,25.62
2016-10-24T00:37:13.326Z,25.62
2016-10-24T00:37:54.023Z,25.58
2016-10-24T00:38:34.686Z,25.58
2016-10-24T00:39:15.346Z,25.62
2016-10-24T00:39:55.989Z,25.64
2016-10-24T00:40:36.675Z,25.61
2016-10-24T00:41:17.384Z,25.64
2016-10-24T00:41:58.096Z,25.55
2016-10-24T00:42:38.800Z,25.58
2016-10-24T00:43:19.516Z,25.6
2016-10-24T00:44:00.234Z,25.61
2016-10-24T00:44:40.913Z,25.57
2016-10-24T00:45:21.625Z,25.61
2016-10-24T00:46:02.351Z,25.6
2016-10-24T00:46:43.063Z,25.62
2016-10-24T00:47:23.720Z,25.65
2016-10-24T00:48:04.414Z,25.58
2016-10-24T00:48:45.094Z,25.57
2016-10-24T00:49:25.792Z,25.58
2016-10-24T00:50:06.446Z,25.62
2016-10-24T00:50:47.123Z,25.7
2016-10-24T00:51:27.815Z,25.55
2016-10-24T00:52:08.522Z,25.65
2016-10-24T00:52:49.253Z,25.58
2016-10-24T00:53:29.929Z,25.62
2016-10-24T00:54:10.590Z,25.7
2016-10-24T00:54:51.283Z,25.65
2016-10-24T00:55:31.962Z,25.65
2016-10-24T00:56:12.640Z,25.7
2016-10-24T00:56:53.309Z,25.65
2016-10-24T00:57:34.009Z,25.6
2016-10-24T00:58:14.707Z,25.65
2016-10-24T00:58:55.386Z,25.61
2016-10-24T00:59:36.053Z,25.54
2016-10-24T01:00:16.723Z,25.69
2016-10-24T01:00:57.431Z,25.54
2016-10-24T01:01:38.124Z,25.62
2016-10-24T01:02:18.829Z,25.57
2016-10-24T01:02:59.497Z,25.62
2016-10-24T01:03:40.210Z,25.64
2016-10-24T01:04:20.941Z,25.58
2016-10-24T01:05:01.626Z,25.65
2016-10-24T01:05:42.289Z,25.62
2016-10-24T01:06:22.969Z,25.57
2016-10-24T01:07:03.698Z,25.64
2016-10-24T01:07:44.377Z,25.67
2016-10-24T01:08:25.038Z,25.72
2016-10-24T01:09:05.769Z,25.62
2016-10-24T01:09:46.440Z,25.64
2016-10-24T01:10:27.100Z,25.62
2016-10-24T01:11:07.812Z,25.6
2016-10-24T01:11:48.480Z,25.64
2016-10-24T01:12:29.165Z,25.65
2016-10-24T01:13:09.857Z,25.62
2016-10-24T01:13:50.517Z,25.57
2016-10-24T01:14:31.241Z,25.58
2016-10-24T01:15:11.958Z,25.64
2016-10-24T01:15:52.642Z,25.64
2016-10-24T01:16:33.333Z,25.64
2016-10-24T01:17:14.006Z,25.65
2016-10-24T01:17:54.692Z,25.57
2016-10-24T01:18:35.388Z,25.69
2016-10-24T01:19:16.087Z,25.67
2016-10-24T01:19:56.772Z,25.6
2016-10-24T01:20:37.445Z,25.67
2016-10-24T01:21:18.146Z,25.65
2016-10-24T01:21:58.816Z,25.67
2016-10-24T01:22:39.509Z,25.6
2016-10-24T01:23:20.172Z,25.55
2016-10-24T01:24:00.890Z,25.72
2016-10-24T01:24:41.585Z,25.67
2016-10-24T01:25:22.296Z,25.65
2016-10-24T01:26:02.958Z,25.65
2016-10-24T01:26:43.629Z,25.6
2016-10-24T01:27:24.295Z,25.61
2016-10-24T01:28:05.021Z,25.64
2016-10-24T01:28:45.760Z,25.67
2016-10-24T01:29:26.420Z,25.61
2016-10-24T01:30:07.121Z,25.6
2016-10-24T01:30:47.833Z,25.65
2016-10-24T01:31:28.509Z,25.58
2016-10-24T01:32:09.172Z,25.65
2016-10-24T01:32:49.872Z,25.62
2016-10-24T01:33:30.543Z,25.67
2016-10-24T01:34:11.290Z,25.6
2016-10-24T01:34:51.966Z,25.64
2016-10-24T01:35:32.653Z,25.6
2016-10-24T01:36:13.336Z,25.64
2016-10-24T01:36:54.035Z,25.6
2016-10-24T01:37:34.735Z,25.61
2016-10-24T01:38:15.397Z,25.62
2016-10-24T01:38:56.085Z,25.6
2016-10-24T01:39:36.789Z,25.65
2016-10-24T01:40:17.450Z,25.67
2016-10-24T01:40:58.167Z,25.55
2016-10-24T01:41:38.832Z,25.57
2016-10-24T01:42:19.550Z,25.58
2016-10-24T01:43:00.254Z,25.6
2016-10-24T01:43:40.968Z,25.58
2016-10-24T01:44:21.698Z,25.61
2016-10-24T01:45:02.413Z,25.58
2016-10-24T01:45:43.111Z,25.67
2016-10-24T01:46:23.797Z,25.65
2016-10-24T01:47:04.469Z,25.64
2016-10-24T01:47:45.136Z,25.64
2016-10-24T01:48:25.808Z,25.6
2016-10-24T01:49:06.518Z,25.55
2016-10-24T01:49:47.194Z,25.67
2016-10-24T01:50:27.896Z,25.67
2016-10-24T01:51:08.625Z,25.62
2016-10-24T01:51:49.354Z,25.65
2016-10-24T01:52:30.029Z,25.6
2016-10-24T01:53:11.299Z,25.6
2016-10-24T01:53:51.999Z,25.61
2016-10-24T01:54:32.667Z,25.58
2016-10-24T01:55:13.368Z,25.64
2016-10-24T01:55:54.055Z,25.55
2016-10-24T01:56:34.792Z,25.6
2016-10-24T01:57:15.469Z,25.6
2016-10-24T01:57:56.208Z,25.55
2016-10-24T01:58:36.903Z,25.55
2016-10-24T01:59:17.605Z,25.6
2016-10-24T01:59:58.316Z,25.57
2016-10-24T02:00:38.985Z,25.62
2016-10-24T02:01:19.666Z,25.61
2016-10-24T02:02:00.344Z,25.58
2016-10-24T02:02:41.088Z,25.54
2016-10-24T02:03:21.772Z,25.58
2016-10-24T02:04:02.477Z,25.58
2016-10-24T02:04:43.161Z,25.64
2016-10-24T02:05:23.860Z,25.54
2016-10-24T02:06:04.527Z,25.58
2016-10-24T02:06:45.213Z,25.62
2016-10-24T02:07:25.979Z,25.52
2016-10-24T02:08:06.662Z,25.61
2016-10-24T02:08:47.375Z,25.62
2016-10-24T02:09:28.048Z,25.61
2016-10-24T02:10:08.726Z,25.6
2016-10-24T02:10:49.441Z,25.58
2016-10-24T02:11:30.143Z,25.6
2016-10-24T02:12:10.780Z,25.52
2016-10-24T02:12:51.458Z,25.61
2016-10-24T02:13:32.146Z,25.55
2016-10-24T02:14:12.835Z,25.58
2016-10-24T02:14:53.515Z,25.5
2016-10-24T02:15:34.185Z,25.6
2016-10-24T02:16:14.871Z,25.58
2016-10-24T02:16:55.534Z,25.6
2016-10-24T02:17:36.283Z,25.58
2016-10-24T02:18:16.967Z,25.58
2016-10-24T02:18:57.677Z,25.51
2016-10-24T02:19:38.331Z,25.55
2016-10-24T02:20:19.007Z,25.55
2016-10-24T02:20:59.702Z,25.6
2016-10-24T02:21:40.380Z,25.64
2016-10-24T02:22:21.034Z,25.55
2016-10-24T02:23:01.748Z,25.55
2016-10-24T02:23:42.449Z,25.58
2016-10-24T02:24:23.127Z,25.57
2016-10-24T02:25:03.814Z,25.55
2016-10-24T02:25:44.501Z,25.51
2016-10-24T02:26:25.216Z,25.57
2016-10-24T02:27:05.924Z,25.52
2016-10-24T02:27:46.619Z,25.6
2016-10-24T02:28:27.349Z,25.52
2016-10-24T02:29:08.024Z,25.57
2016-10-24T02:29:48.736Z,25.55
2016-10-24T02:30:29.428Z,25.61
2016-10-24T02:31:10.155Z,25.58
2016-10-24T02:31:50.892Z,25.57
2016-10-24T02:32:31.546Z,25.52
2016-10-24T02:33:12.188Z,25.62
2016-10-24T02:33:52.870Z,25.55
2016-10-24T02:34:33.561Z,25.62
2016-10-24T02:35:14.203Z,25.55
2016-10-24T02:35:54.883Z,25.55
2016-10-24T02:36:35.596Z,25.58
2016-10-24T02:37:16.285Z,25.57
2016-10-24T02:37:56.957Z,25.58
2016-10-24T02:38:37.629Z,25.54
2016-10-24T02:39:18.337Z,25.58
2016-10-24T02:39:59.053Z,25.5
2016-10-24T02:40:39.730Z,25.55
2016-10-24T02:41:20.413Z,25.58
2016-10-24T02:42:01.113Z,25.54
2016-10-24T02:42:41.805Z,25.58
2016-10-24T02:43:22.515Z,25.58
2016-10-24T02:44:03.185Z,25.58
2016-10-24T02:44:43.887Z,25.55
2016-10-24T02:45:24.578Z,25.52
2016-10-24T02:46:05.292Z,25.57
2016-10-24T02:46:45.990Z,25.51
2016-10-24T02:47:26.680Z,25.55
2016-10-24T02:48:07.374Z,25.55
2016-10-24T02:48:48.009Z,25.58
2016-10-24T02:49:28.686Z,25.52
2016-10-24T02:50:09.391Z,25.61
2016-10-24T02:50:50.068Z,25.51
2016-10-24T02:51:30.784Z,25.61
2016-10-24T02:52:11.518Z,25.58
2016-10-24T02:52:52.151Z,25.6
2016-10-24T02:53:32.799Z,25.55
2016-10-24T02:54:13.498Z,25.57
2016-10-24T02:54:54.204Z,25.54
2016-10-24T02:55:34.876Z,25.54
2016-10-24T02:56:15.607Z,25.54
2016-10-24T02:56:56.311Z,25.54
2016-10-24T02:57:36.958Z,25.54
2016-10-24T02:58:17.662Z,25.58
2016-10-24T02:58:58.348Z,25.6
2016-10-24T02:59:39.019Z,25.57
2016-10-24T03:00:19.726Z,25.52
2016-10-24T03:01:00.386Z,25.61
2016-10-24T03:01:41.088Z,25.6
2016-10-24T03:02:21.765Z,25.51
2016-10-24T03:03:02.504Z,25.55
2016-10-24T03:03:43.161Z,25.52
2016-10-24T03:04:23.863Z,25.54
2016-10-24T03:05:04.540Z,25.55
2016-10-24T03:05:45.184Z,25.6
2016-10-24T03:06:25.885Z,25.58
2016-10-24T03:07:06.575Z,25.54
2016-10-24T03:07:47.251Z,25.51
2016-10-24T03:08:27.931Z,25.57
2016-10-24T03:09:08.615Z,25.55
2016-10-24T03:09:49.273Z,25.57
2016-10-24T03:10:29.936Z,25.55
2016-10-24T03:11:10.610Z,25.55
2016-10-24T03:11:51.280Z,25.54
2016-10-24T03:12:31.952Z,25.55
2016-10-24T03:13:12.640Z,25.6
2016-10-24T03:13:53.277Z,25.54
2016-10-24T03:14:33.927Z,25.52
2016-10-24T03:15:14.626Z,25.5
2016-10-24T03:15:55.311Z,25.52
2016-10-24T03:16:35.979Z,25.54
2016-10-24T03:17:16.654Z,25.55
2016-10-24T03:17:57.328Z,25.57
2016-10-24T03:18:38.013Z,25.47
2016-10-24T03:19:18.679Z,25.5
2016-10-24T03:19:59.325Z,25.55
2016-10-24T03:20:40.005Z,25.57
2016-10-24T03:21:20.747Z,25.57
2016-10-24T03:22:01.458Z,25.57
2016-10-24T03:22:42.130Z,25.6
2016-10-24T03:23:22.806Z,25.54
2016-10-24T03:24:03.480Z,25.55
2016-10-24T03:24:44.156Z,25.58
2016-10-24T03:25:24.835Z,25.61
2016-10-24T03:26:05.511Z,25.57
2016-10-24T03:26:46.220Z,25.47
2016-10-24T03:27:26.906Z,25.57
2016-10-24T03:28:07.590Z,25.54
2016-10-24T03:28:48.305Z,25.52
2016-10-24T03:29:29.011Z,25.58
2016-10-24T03:30:09.683Z,25.52
2016-10-24T03:30:50.324Z,25.5
2016-10-24T03:31:31.021Z,25.52
2016-10-24T03:32:11.721Z,25.5
2016-10-24T03:32:52.440Z,25.57
2016-10-24T03:33:33.085Z,25.52
2016-10-24T03:34:13.824Z,25.57
2016-10-24T03:34:54.499Z,25.52
2016-10-24T03:35:35.196Z,25.6
2016-10-24T03:36:15.934Z,25.5
2016-10-24T03:36:56.600Z,25.51
2016-10-24T03:37:37.288Z,25.57
2016-10-24T03:38:17.973Z,25.55
2016-10-24T03:38:58.707Z,25.58
2016-10-24T03:39:39.450Z,25.55
2016-10-24T03:40:20.153Z,25.57
2016-10-24T03:41:00.806Z,25.6
2016-10-24T03:41:41.484Z,25.57
2016-10-24T03:42:22.162Z,25.43
2016-10-24T03:43:02.823Z,25.57
2016-10-24T03:43:43.513Z,25.5
2016-10-24T03:44:24.152Z,25.47
2016-10-24T03:45:04.852Z,25.46
2016-10-24T03:45:45.549Z,25.47
2016-10-24T03:46:26.211Z,25.51
2016-10-24T03:47:06.899Z,25.57
2016-10-24T03:47:47.616Z,25.5
2016-10-24T03:48:28.305Z,25.58
2016-10-24T03:49:08.980Z,25.51
2016-10-24T03:49:49.638Z,25.54
2016-10-24T03:50:30.343Z,25.54
2016-10-24T03:51:11.033Z,25.5
2016-10-24T03:51:51.738Z,25.52
2016-10-24T03:52:32.423Z,25.55
2016-10-24T03:53:13.135Z,25.55
2016-10-24T03:53:53.831Z,25.47
2016-10-24T03:54:34.565Z,25.47
2016-10-24T03:55:15.272Z,25.54
2016-10-24T03:55:55.960Z,25.46
2016-10-24T03:56:36.639Z,25.46
2016-10-24T03:57:17.336Z,25.55
2016-10-24T03:57:58.022Z,25.45
2016-10-24T03:58:38.713Z,25.57
2016-10-24T03:59:19.455Z,25.52
2016-10-24T04:00:00.116Z,25.52
2016-10-24T04:00:40.826Z,25.52
2016-10-24T04:01:21.459Z,25.58
2016-10-24T04:02:02.153Z,25.5
2016-10-24T04:02:42.806Z,25.55
2016-10-24T04:03:23.488Z,25.57
2016-10-24T04:04:04.183Z,25.57
2016-10-24T04:04:44.883Z,25.5
2016-10-24T04:05:25.559Z,25.51
2016-10-24T04:06:06.216Z,25.55
2016-10-24T04:06:46.881Z,25.51
2016-10-24T04:07:27.568Z,25.47
2016-10-24T04:08:08.276Z,25.6
2016-10-24T04:08:48.962Z,25.45
2016-10-24T04:09:29.680Z,25.5
2016-10-24T04:10:10.335Z,25.54
2016-10-24T04:10:50.984Z,25.46
2016-10-24T04:11:31.713Z,25.5
2016-10-24T04:12:12.413Z,25.52
2016-10-24T04:12:53.076Z,25.51
2016-10-24T04:13:33.783Z,25.52
2016-10-24T04:14:14.445Z,25.46
2016-10-24T04:14:55.101Z,25.47
2016-10-24T04:15:35.808Z,25.47
2016-10-24T04:16:16.488Z,25.54
2016-10-24T04:16:57.169Z,25.57
2016-10-24T04:17:37.867Z,25.47
2016-10-24T04:18:18.533Z,25.52
2016-10-24T04:18:59.185Z,25.54
2016-10-24T04:19:39.892Z,25.46
2016-10-24T04:20:20.567Z,25.57
2016-10-24T04:21:01.261Z,25.52
2016-10-24T04:21:41.970Z,25.45
2016-10-24T04:22:22.654Z,25.51
2016-10-24T04:23:03.335Z,25.55
2016-10-24T04:23:44.053Z,25.45
2016-10-24T04:24:24.737Z,25.51
2016-10-24T04:25:05.418Z,25.54
2016-10-24T04:25:46.080Z,25.55
2016-10-24T04:26:26.752Z,25.51
2016-10-24T04:27:07.489Z,25.46
2016-10-24T04:27:48.180Z,25.47
2016-10-24T04:28:28.883Z,25.51
2016-10-24T04:29:09.578Z,25.51
2016-10-24T04:29:50.293Z,25.51
2016-10-24T04:30:30.980Z,25.51
2016-10-24T04:31:11.692Z,25.46
2016-10-24T04:31:52.357Z,25.54
2016-10-24T04:32:33.011Z,25.54
2016-10-24T04:33:13.701Z,25.47
2016-10-24T04:33:54.392Z,25.45
2016-10-24T04:34:35.035Z,25.46
2016-10-24T04:35:15.723Z,25.61
2016-10-24T04:35:56.374Z,25.51
2016-10-24T04:36:37.055Z,25.51
2016-10-24T04:37:17.747Z,25.52
2016-10-24T04:37:58.419Z,25.51
2016-10-24T04:38:39.059Z,25.51
2016-10-24T04:39:19.776Z,25.52
2016-10-24T04:40:00.469Z,25.51
2016-10-24T04:40:41.121Z,25.54
2016-10-24T04:41:21.776Z,25.47
2016-10-24T04:42:02.475Z,25.55
2016-10-24T04:42:43.146Z,25.51
2016-10-24T04:43:23.847Z,25.45
2016-10-24T04:44:04.533Z,25.5
2016-10-24T04:44:45.211Z,25.54
2016-10-24T04:45:25.940Z,25.45
2016-10-24T04:46:06.646Z,25.5
2016-10-24T04:46:47.379Z,25.51
2016-10-24T04:47:28.033Z,25.5
2016-10-24T04:48:08.713Z,25.55
2016-10-24T04:48:49.422Z,25.54
2016-10-24T04:49:30.102Z,25.54
2016-10-24T04:50:10.830Z,25.52
2016-10-24T04:50:51.511Z,25.45
2016-10-24T04:51:32.227Z,25.52
2016-10-24T04:52:12.932Z,25.55
2016-10-24T04:52:53.675Z,25.51
2016-10-24T04:53:34.376Z,25.51
2016-10-24T04:54:15.061Z,25.5
2016-10-24T04:54:55.739Z,25.47
2016-10-24T04:55:36.462Z,25.46
2016-10-24T04:56:17.139Z,25.46
2016-10-24T04:56:57.863Z,25.51
2016-10-24T04:57:38.544Z,25.51
2016-10-24T04:58:19.224Z,25.51
2016-10-24T04:58:59.962Z,25.46
2016-10-24T04:59:40.637Z,25.51
2016-10-24T05:00:21.274Z,25.54
2016-10-24T05:01:01.959Z,25.54
2016-10-24T05:01:42.640Z,25.55
2016-10-24T05:02:23.299Z,25.51
2016-10-24T05:03:04.006Z,25.54
2016-10-24T05:03:44.639Z,25.51
2016-10-24T05:04:25.302Z,25.54
2016-10-24T05:05:05.974Z,25.51
2016-10-24T05:05:46.661Z,25.51
2016-10-24T05:06:27.372Z,25.47
2016-10-24T05:07:08.029Z,25.47
2016-10-24T05:07:48.703Z,25.51
2016-10-24T05:08:29.397Z,25.54
2016-10-24T05:09:10.104Z,25.43
2016-10-24T05:09:50.831Z,25.52
2016-10-24T05:10:31.489Z,25.5
2016-10-24T05:11:12.190Z,25.51
2016-10-24T05:11:52.854Z,25.45
2016-10-24T05:12:33.501Z,25.54
2016-10-24T05:13:14.195Z,25.5
2016-10-24T05:13:54.892Z,25.54
2016-10-24T05:14:35.541Z,25.51
2016-10-24T05:15:16.204Z,25.55
2016-10-24T05:15:56.879Z,25.47
2016-10-24T05:16:37.613Z,25.51
2016-10-24T05:17:18.314Z,25.46
2016-10-24T05:17:59.018Z,25.51
2016-10-24T05:18:39.698Z,25.45
2016-10-24T05:19:20.347Z,25.57
2016-10-24T05:20:01.063Z,25.51
2016-10-24T05:20:41.760Z,25.52
2016-10-24T05:21:22.453Z,25.55
2016-10-24T05:22:03.143Z,25.47
2016-10-24T05:22:43.850Z,25.45
2016-10-24T05:23:24.546Z,25.45
2016-10-24T05:24:05.214Z,25.47
2016-10-24T05:24:45.955Z,25.5
2016-10-24T05:25:26.639Z,25.47
2016-10-24T05:26:07.304Z,25.55
2016-10-24T05:26:47.970Z,25.46
2016-10-24T05:27:28.651Z,25.51
2016-10-24T05:28:09.313Z,25.47
2016-10-24T05:28:50.022Z,25.51
2016-10-24T05:29:30.711Z,25.51
2016-10-24T05:30:11.351Z,25.45
2016-10-24T05:30:52.060Z,25.57
2016-10-24T05:31:32.767Z,25.51
2016-10-24T05:32:14.163Z,25.57
2016-10-24T05:32:54.973Z,25.52
2016-10-24T05:33:35.652Z,25.52
2016-10-24T05:34:16.356Z,25.54
2016-10-24T05:34:57.071Z,25.47
2016-10-24T05:35:37.718Z,25.5
2016-10-24T05:36:18.407Z,25.51
2016-10-24T05:36:59.079Z,25.51
2016-10-24T05:37:39.762Z,25.45
2016-10-24T05:38:20.451Z,25.55
2016-10-24T05:39:01.144Z,25.51
2016-10-24T05:39:41.806Z,25.5
2016-10-24T05:40:22.498Z,25.47
2016-10-24T05:41:03.132Z,25.47
2016-10-24T05:41:43.829Z,25.51
2016-10-24T05:42:24.579Z,25.46
2016-10-24T05:43:05.255Z,25.5
2016-10-24T05:43:45.946Z,25.45
2016-10-24T05:44:26.621Z,25.51
2016-10-24T05:45:07.301Z,25.51
2016-10-24T05:45:47.983Z,25.46
2016-10-24T05:46:28.682Z,25.52
2016-10-24T05:47:09.337Z,25.47
2016-10-24T05:47:50.024Z,25.5
2016-10-24T05:48:30.726Z,25.51
2016-10-24T05:49:11.366Z,25.55
2016-10-24T05:49:52.113Z,25.47
2016-10-24T05:50:32.771Z,25.52
2016-10-24T05:51:13.467Z,25.51
2016-10-24T05:51:54.152Z,25.47
2016-10-24T05:52:34.801Z,25.57
2016-10-24T05:53:15.443Z,25.47
2016-10-24T05:53:56.149Z,25.51
2016-10-24T05:54:36.888Z,25.51
2016-10-24T05:55:17.570Z,25.51
2016-10-24T05:55:58.313Z,25.51
2016-10-24T05:56:39.020Z,25.54
2016-10-24T05:57:19.704Z,25.51
2016-10-24T05:58:00.429Z,25.55
2016-10-24T05:58:41.183Z,25.46
2016-10-24T05:59:21.883Z,25.47
2016-10-24T06:00:02.597Z,25.5
2016-10-24T06:00:43.366Z,25.54
2016-10-24T06:01:24.082Z,25.51
2016-10-24T06:02:04.826Z,25.51
2016-10-24T06:02:45.502Z,25.51
2016-10-24T06:03:26.185Z,25.57
2016-10-24T06:04:06.904Z,25.54
2016-10-24T06:04:47.575Z,25.5
2016-10-24T06:05:28.283Z,25.47
2016-10-24T06:06:08.980Z,25.51
2016-10-24T06:06:49.680Z,25.46
2016-10-24T06:07:30.386Z,25.51
2016-10-24T06:08:11.151Z,25.51
2016-10-24T06:08:51.823Z,25.46
2016-10-24T06:09:32.491Z,25.55
2016-10-24T06:10:13.171Z,25.5
2016-10-24T06:10:53.915Z,25.54
2016-10-24T06:11:34.674Z,25.45
2016-10-24T06:12:15.421Z,25.46
2016-10-24T06:12:56.207Z,25.51
2016-10-24T06:13:36.880Z,25.52
2016-10-24T06:14:17.566Z,25.46
2016-10-24T06:14:58.220Z,25.51
2016-10-24T06:15:38.920Z,25.5
2016-10-24T06:16:19.608Z,25.47
2016-10-24T06:17:00.311Z,25.55
2016-10-24T06:17:41.025Z,25.54
2016-10-24T06:18:21.721Z,25.46
2016-10-24T06:19:02.406Z,25.54
2016-10-24T06:19:43.104Z,25.45
2016-10-24T06:20:23.809Z,25.47
2016-10-24T06:21:04.526Z,25.51
2016-10-24T06:21:45.206Z,25.5
2016-10-24T06:22:25.932Z,25.55
2016-10-24T06:23:06.625Z,25.5
2016-10-24T06:23:47.337Z,25.47
2016-10-24T06:24:28.033Z,25.5
2016-10-24T06:25:08.716Z,25.46
2016-10-24T06:25:50.000Z,25.5
2016-10-24T06:26:30.129Z,25.55
2016-10-24T06:27:10.811Z,25.52
2016-10-24T06:27:51.482Z,25.47
2016-10-24T06:28:32.232Z,25.52
2016-10-24T06:29:12.889Z,25.47
2016-10-24T06:29:53.590Z,25.54
2016-10-24T06:30:34.262Z,25.54
2016-10-24T06:31:14.938Z,25.47
2016-10-24T06:31:55.712Z,25.55
2016-10-24T06:32:36.377Z,25.55
2016-10-24T06:33:17.084Z,25.51
2016-10-24T06:33:57.758Z,25.58
2016-10-24T06:34:38.447Z,25.46
2016-10-24T06:35:19.132Z,25.28
2016-10-24T06:35:59.860Z,25.25
2016-10-24T06:36:40.561Z,25.24
2016-10-24T06:37:21.249Z,25.28
2016-10-24T06:38:01.976Z,25.23
2016-10-24T06:38:42.641Z,25.15
2016-10-24T06:39:23.333Z,25.1
2016-10-24T06:40:04.026Z,25.06
2016-10-24T06:40:44.678Z,25.03
2016-10-24T06:41:25.352Z,25
2016-10-24T06:42:06.067Z,25.02
2016-10-24T06:42:46.706Z,25.03
2016-10-24T06:43:27.434Z,24.88
2016-10-24T06:44:08.104Z,24.9
2016-10-24T06:44:48.764Z,24.69
2016-10-24T06:45:29.468Z,24.6
2016-10-24T06:46:10.332Z,24.47
2016-10-24T06:46:51.009Z,24.49
2016-10-24T06:47:31.680Z,24.4
2016-10-24T06:48:12.406Z,24.32
2016-10-24T06:48:53.092Z,24.21
2016-10-24T06:49:33.754Z,24.21
2016-10-24T06:50:14.515Z,24.15
2016-10-24T06:50:55.232Z,24.25
2016-10-24T06:51:35.911Z,24.09
2016-10-24T06:52:16.624Z,24
2016-10-24T06:52:57.346Z,23.9
2016-10-24T06:53:37.985Z,23.88
2016-10-24T06:54:18.732Z,23.78
2016-10-24T06:54:59.397Z,23.9
2016-10-24T06:55:40.101Z,23.91
2016-10-24T06:56:20.817Z,23.95
2016-10-24T06:57:01.510Z,23.88
2016-10-24T06:57:42.256Z,23.76
2016-10-24T06:58:22.953Z,23.79
2016-10-24T06:59:03.647Z,23.94
2016-10-24T06:59:44.400Z,23.66
2016-10-24T07:00:25.100Z,23.7
2016-10-24T07:01:05.799Z,23.72
2016-10-24T07:01:46.504Z,23.79
2016-10-24T07:02:27.177Z,23.75
2016-10-24T07:03:07.887Z,23.75
2016-10-24T07:03:48.581Z,23.75
2016-10-24T07:04:29.261Z,23.65
2016-10-24T07:05:09.905Z,23.68
2016-10-24T07:05:50.589Z,23.7
2016-10-24T07:06:31.300Z,23.51
2016-10-24T07:07:11.997Z,23.65
2016-10-24T07:07:52.673Z,23.57
2016-10-24T07:08:33.404Z,23.5
2016-10-24T07:09:14.128Z,23.6
2016-10-24T07:09:54.775Z,23.73
2016-10-24T07:10:35.483Z,23.65
2016-10-24T07:11:16.155Z,23.66
2016-10-24T07:11:56.869Z,23.53
2016-10-24T07:12:37.569Z,23.58
2016-10-24T07:13:18.215Z,23.54
2016-10-24T07:13:58.956Z,23.48
2016-10-24T07:14:39.646Z,23.57
2016-10-24T07:15:20.288Z,23.57
2016-10-24T07:16:01.031Z,23.35
2016-10-24T07:16:41.712Z,23.51
2016-10-24T07:17:22.394Z,23.46
2016-10-24T07:18:03.168Z,23.33
2016-10-24T07:18:43.853Z,23.33
2016-10-24T07:19:24.527Z,23.47
2016-10-24T07:20:05.263Z,23.51
2016-10-24T07:20:45.963Z,23.57
2016-10-24T07:21:26.654Z,23.53
2016-10-24T07:22:07.408Z,23.57
2016-10-24T07:22:48.127Z,23.66
2016-10-24T07:23:28.829Z,23.61
2016-10-24T07:24:09.546Z,23.65
2016-10-24T07:24:50.257Z,23.72
2016-10-24T07:25:30.941Z,23.6
2016-10-24T07:26:11.628Z,23.68
2016-10-24T07:26:52.320Z,23.66
2016-10-24T07:27:33.064Z,23.42
2016-10-24T07:28:13.747Z,23.55
2016-10-24T07:28:54.563Z,23.5
2016-10-24T07:29:35.272Z,23.51
2016-10-24T07:30:15.952Z,23.48
2016-10-24T07:30:56.657Z,23.47
2016-10-24T07:31:37.371Z,23.54
2016-10-24T07:32:18.084Z,23.43
2016-10-24T07:32:58.796Z,23.46
2016-10-24T07:33:39.454Z,23.38
2016-10-24T07:34:20.144Z,23.38
2016-10-24T07:35:00.835Z,23.5
2016-10-24T07:35:41.523Z,23.46
2016-10-24T07:36:22.247Z,23.39
2016-10-24T07:37:02.953Z,23.38
2016-10-24T07:37:43.645Z,23.39
2016-10-24T07:38:24.331Z,23.39
2016-10-24T07:39:05.013Z,23.28
2016-10-24T07:39:45.753Z,23.19
2016-10-24T07:40:26.421Z,23.23
2016-10-24T07:41:07.130Z,23.15
2016-10-24T07:41:47.871Z,23.16
2016-10-24T07:42:28.587Z,23.19
2016-10-24T07:43:09.297Z,23.25
2016-10-24T07:43:50.032Z,23.28
2016-10-24T07:44:30.702Z,23.33
2016-10-24T07:45:11.381Z,23.43
2016-10-24T07:45:52.061Z,23.28
2016-10-24T07:46:32.780Z,23.17
2016-10-24T07:47:13.480Z,23.09
2016-10-24T07:47:54.178Z,23.13
2016-10-24T07:48:34.894Z,23.01
2016-10-24T07:49:15.670Z,23.12
2016-10-24T07:49:56.329Z,23.19
2016-10-24T07:50:37.022Z,23.13
2016-10-24T07:51:17.705Z,23.1
2016-10-24T07:51:58.384Z,23.2
2016-10-24T07:52:39.034Z,23.15
2016-10-24T07:53:19.667Z,23.32
2016-10-24T07:54:00.377Z,23.23
2016-10-24T07:54:41.073Z,23.28
2016-10-24T07:55:21.779Z,23.13
2016-10-24T07:56:02.473Z,23
2016-10-24T07:56:43.187Z,23
2016-10-24T07:57:23.880Z,23.05
2016-10-24T07:58:04.540Z,23.01
2016-10-24T07:58:45.274Z,22.98
2016-10-24T07:59:25.968Z,22.95
2016-10-24T08:00:06.677Z,22.95
2016-10-24T08:00:47.406Z,23.01
2016-10-24T08:01:28.136Z,23
2016-10-24T08:02:08.836Z,23.04
2016-10-24T08:02:49.571Z,23.1
2016-10-24T08:03:30.270Z,22.94
2016-10-24T08:04:10.948Z,22.98
2016-10-24T08:04:51.663Z,22.91
2016-10-24T08:05:32.338Z,22.86
2016-10-24T08:06:13.011Z,22.92
2016-10-24T08:06:53.716Z,22.86
2016-10-24T08:07:34.447Z,22.86
2016-10-24T08:08:15.135Z,22.75
2016-10-24T08:08:55.833Z,22.83
2016-10-24T08:09:36.556Z,22.85
2016-10-24T08:10:17.255Z,22.85
2016-10-24T08:10:57.940Z,22.85
2016-10-24T08:11:38.845Z,22.85
2016-10-24T08:12:19.537Z,22.95
2016-10-24T08:13:00.225Z,22.98
2016-10-24T08:13:40.884Z,23.04
2016-10-24T08:14:21.576Z,23.16
2016-10-24T08:15:02.264Z,23.09
2016-10-24T08:15:43.026Z,23.07
2016-10-24T08:16:23.691Z,23.13
2016-10-24T08:17:04.365Z,23.13
2016-10-24T08:17:45.067Z,23.15
2016-10-24T08:18:25.758Z,23.1
2016-10-24T08:19:06.440Z,23.07
2016-10-24T08:19:47.197Z,23.12
2016-10-24T08:20:27.922Z,23.05
2016-10-24T08:21:08.570Z,23.19
2016-10-24T08:21:49.197Z,23.16
2016-10-24T08:22:29.848Z,23.2
2016-10-24T08:23:10.523Z,23.17
2016-10-24T08:23:51.278Z,23.15
2016-10-24T08:24:31.952Z,23.17
2016-10-24T08:25:12.685Z,23.09
2016-10-24T08:25:53.954Z,23.1
2016-10-24T08:26:34.649Z,23.1
2016-10-24T08:27:15.327Z,23.13
2016-10-24T08:27:56.021Z,23.17
2016-10-24T08:28:36.707Z,23.15
2016-10-24T08:29:17.390Z,23.17
2016-10-24T08:29:58.079Z,23.15
2016-10-24T08:30:38.764Z,23.19
2016-10-24T08:31:19.422Z,23.27
2016-10-24T08:32:00.099Z,23.23
2016-10-24T08:32:40.783Z,23.27
2016-10-24T08:33:21.452Z,23.25
2016-10-24T08:34:02.112Z,23.31
2016-10-24T08:34:42.789Z,23.33
2016-10-24T08:35:23.475Z,23.46
2016-10-24T08:36:04.198Z,23.43
2016-10-24T08:36:44.869Z,23.38
2016-10-24T08:37:25.575Z,23.5
2016-10-24T08:38:06.300Z,23.5
2016-10-24T08:38:47.009Z,23.46
2016-10-24T08:39:27.713Z,23.42
2016-10-24T08:40:08.431Z,23.36
2016-10-24T08:40:49.089Z,23.43
2016-10-24T08:41:29.769Z,23.51
2016-10-24T08:42:10.458Z,23.53
2016-10-24T08:42:51.139Z,23.4
2016-10-24T08:43:31.858Z,23.42
2016-10-24T08:44:12.515Z,23.54
2016-10-24T08:44:53.227Z,23.55
2016-10-24T08:45:33.971Z,23.48
2016-10-24T08:46:14.677Z,23.5
2016-10-24T08:46:55.403Z,23.53